PWSweather.com
Personal Weather Stations
Station Observations
GABROVO
GabrovoBG 5300

GabrovoBG 5300

Lat: 42.8713, Lon: 25.3155

Elevation: 1312

Station Type: Davis Vantage Pro2 Plus

Latest ConditionsUpdated 7:20:01 AM GMT+02:02 Thursday, Jun 27, 2019
Currently Today's Max Today's Min Today's Average
Temperature 66.7°F19.3°C 66.7°F19.3°C 60.8°F16.0°C 62.4°F16.9°C
Dew Point 64.9°F18.3°C 64.9°F18.3°C 59.7°F15.4°C 61.1°F16.2°C
Winds Calm Calm 3.5 mph -5.6 kmh - - 1.7 mph 2.7 kmh
Wind Gusts -- 5.8 mph9.3 kmh - -
Humidity 94% 96% 94% 96%
Pressure 30.06 in1017.9 mb 30.11 in1019.6 mb 30.06 in1017.9 mb -
Precipitation - 0.01 in0.3 mm - -
Hour Temp Dew Point Humidity Winds Wind Gusts Pressure Precip Precip Rate Daily Precip Total
07:20 AM 66.7°F19.3°C 64.9°F18.3°C 94% Calm Calm -- 30.06 in1017.9 mb - 0.00 in0.0 mm 0.01 in0.3 mm
07:10 AM 65.9°F18.8°C 64.4°F18.0°C 95% Calm Calm -- 30.06 in1017.9 mb - 0.00 in0.0 mm 0.01 in0.3 mm
07:00 AM 65.1°F18.4°C 64.0°F17.8°C 96% Calm Calm -- 30.06 in1017.9 mb - 0.00 in0.0 mm 0.01 in0.3 mm
06:50 AM 64.3°F17.9°C 63.1°F17.3°C 96% Calm Calm -- 30.07 in1018.3 mb - 0.00 in0.0 mm 0.01 in0.3 mm
06:40 AM 63.6°F17.6°C 62.4°F16.9°C 96% Calm Calm -- 30.07 in1018.3 mb - 0.00 in0.0 mm 0.01 in0.3 mm
06:30 AM 62.9°F17.2°C 61.7°F16.5°C 96% Calm Calm -- 30.07 in1018.3 mb - 0.00 in0.0 mm 0.01 in0.3 mm
06:20 AM 62.3°F16.8°C 61.2°F16.2°C 96% Calm Calm -- 30.07 in1018.3 mb - 0.00 in0.0 mm 0.01 in0.3 mm
06:10 AM 61.9°F16.6°C 60.8°F16.0°C 96% Calm Calm -- 30.07 in1018.3 mb - 0.00 in0.0 mm 0.01 in0.3 mm
06:00 AM 61.6°F16.4°C 60.4°F15.8°C 96% 3.5 mph N5.6 kmh N 3.5 mph5.6 kmh 30.08 in1018.6 mb - 0.00 in0.0 mm 0.01 in0.3 mm
05:50 AM 61.4°F16.3°C 60.2°F15.7°C 96% 3.5 mph N5.6 kmh N 3.5 mph5.6 kmh 30.08 in1018.6 mb - 0.00 in0.0 mm 0.01 in0.3 mm
05:40 AM 61.2°F16.2°C 60.1°F15.6°C 96% Calm Calm -- 30.08 in1018.6 mb - 0.00 in0.0 mm 0.01 in0.3 mm
05:30 AM 61.0°F16.1°C 59.9°F15.5°C 96% 2.3 mph N3.7 kmh N 3.5 mph5.6 kmh 30.08 in1018.6 mb - 0.00 in0.0 mm 0.01 in0.3 mm
05:20 AM 60.9°F16.1°C 59.8°F15.4°C 96% 2.3 mph N3.7 kmh N 3.5 mph5.6 kmh 30.08 in1018.6 mb - 0.00 in0.0 mm 0.01 in0.3 mm
05:10 AM 61.0°F16.1°C 59.9°F15.5°C 96% 1.2 mph N1.9 kmh N -- 30.08 in1018.6 mb - 0.00 in0.0 mm 0.01 in0.3 mm
05:00 AM 60.8°F16.0°C 59.7°F15.4°C 96% 1.2 mph N1.9 kmh N 3.5 mph5.6 kmh 30.08 in1018.6 mb - 0.00 in0.0 mm 0.01 in0.3 mm
04:50 AM 60.9°F16.1°C 59.8°F15.4°C 96% Calm Calm -- 30.08 in1018.6 mb - 0.00 in0.0 mm 0.01 in0.3 mm
04:40 AM 61.1°F16.2°C 60.0°F15.6°C 96% 3.5 mph N5.6 kmh N 4.6 mph7.4 kmh 30.08 in1018.6 mb - 0.00 in0.0 mm 0.01 in0.3 mm
04:30 AM 61.4°F16.3°C 60.2°F15.7°C 96% Calm Calm -- 30.08 in1018.6 mb - 0.00 in0.0 mm 0.01 in0.3 mm
04:20 AM 61.3°F16.3°C 60.2°F15.7°C 96% Calm Calm -- 30.08 in1018.6 mb - 0.00 in0.0 mm 0.01 in0.3 mm
04:10 AM 61.4°F16.3°C 60.2°F15.7°C 96% Calm Calm -- 30.08 in1018.6 mb - 0.00 in0.0 mm 0.01 in0.3 mm
04:00 AM 61.4°F16.3°C 60.2°F15.7°C 96% Calm Calm -- 30.09 in1019.0 mb - 0.00 in0.0 mm 0.01 in0.3 mm
03:50 AM 61.6°F16.4°C 60.4°F15.8°C 96% Calm Calm -- 30.09 in1019.0 mb - 0.01 in0.3 mm 0.01 in0.3 mm
03:40 AM 61.7°F16.5°C 60.5°F15.8°C 96% Calm Calm -- 30.09 in1019.0 mb - 0.01 in0.3 mm 0.01 in0.3 mm
03:30 AM 61.8°F16.6°C 60.6°F15.9°C 96% Calm Calm -- 30.09 in1019.0 mb - 0.01 in0.3 mm 0.01 in0.3 mm
03:20 AM 61.8°F16.6°C 60.6°F15.9°C 96% 3.5 mph N5.6 kmh N 3.5 mph5.6 kmh 30.09 in1019.0 mb - 0.01 in0.3 mm 0.01 in0.3 mm
03:10 AM 61.8°F16.6°C 60.4°F15.8°C 95% 3.5 mph N5.6 kmh N 5.8 mph9.3 kmh 30.09 in1019.0 mb - 0.01 in0.3 mm 0.01 in0.3 mm
03:00 AM 61.8°F16.6°C 60.4°F15.8°C 95% 2.3 mph N3.7 kmh N 3.5 mph5.6 kmh 30.09 in1019.0 mb - 0.01 in0.3 mm 0.01 in0.3 mm
02:50 AM 62.0°F16.7°C 60.6°F15.9°C 95% 2.3 mph N3.7 kmh N 3.5 mph5.6 kmh 30.09 in1019.0 mb - 0.00 in0.0 mm 0.00 in0.0 mm
02:40 AM 62.2°F16.8°C 60.8°F16.0°C 95% 2.3 mph N3.7 kmh N 4.6 mph7.4 kmh 30.09 in1019.0 mb - 0.00 in0.0 mm 0.00 in0.0 mm
02:30 AM 62.3°F16.8°C 60.8°F16.0°C 95% 3.5 mph N5.6 kmh N 4.6 mph7.4 kmh 30.09 in1019.0 mb - 0.00 in0.0 mm 0.00 in0.0 mm
02:20 AM 62.4°F16.9°C 60.9°F16.1°C 95% 2.3 mph N3.7 kmh N 3.5 mph5.6 kmh 30.10 in1019.3 mb - 0.00 in0.0 mm 0.00 in0.0 mm
02:10 AM 62.5°F16.9°C 61.0°F16.1°C 95% 3.5 mph N5.6 kmh N 3.5 mph5.6 kmh 30.10 in1019.3 mb - 0.00 in0.0 mm 0.00 in0.0 mm
02:00 AM 62.5°F16.9°C 61.1°F16.2°C 95% 2.3 mph N3.7 kmh N 4.6 mph7.4 kmh 30.10 in1019.3 mb - 0.00 in0.0 mm 0.00 in0.0 mm
01:50 AM 62.7°F17.1°C 61.2°F16.2°C 95% 3.5 mph N5.6 kmh N 4.6 mph7.4 kmh 30.10 in1019.3 mb - 0.00 in0.0 mm 0.00 in0.0 mm
01:40 AM 62.8°F17.1°C 61.3°F16.3°C 95% 3.5 mph N5.6 kmh N 3.5 mph5.6 kmh 30.10 in1019.3 mb - 0.00 in0.0 mm 0.00 in0.0 mm
01:30 AM 62.8°F17.1°C 61.6°F16.4°C 96% 3.5 mph N5.6 kmh N 4.6 mph7.4 kmh 30.10 in1019.3 mb - 0.00 in0.0 mm 0.00 in0.0 mm
01:20 AM 62.6°F17.0°C 61.1°F16.2°C 95% 3.5 mph N5.6 kmh N 4.6 mph7.4 kmh 30.10 in1019.3 mb - 0.00 in0.0 mm 0.00 in0.0 mm
01:10 AM 62.6°F17.0°C 61.1°F16.2°C 95% 3.5 mph N5.6 kmh N 4.6 mph7.4 kmh 30.10 in1019.3 mb - 0.00 in0.0 mm 0.00 in0.0 mm
01:00 AM 62.7°F17.1°C 61.2°F16.2°C 95% Calm Calm 3.5 mph5.6 kmh 30.10 in1019.3 mb - 0.00 in0.0 mm 0.00 in0.0 mm
12:50 AM 62.9°F17.2°C 61.4°F16.3°C 95% 2.3 mph N3.7 kmh N 4.6 mph7.4 kmh 30.10 in1019.3 mb - 0.00 in0.0 mm 0.00 in0.0 mm
12:40 AM 62.9°F17.2°C 61.4°F16.3°C 95% 2.3 mph N3.7 kmh N 3.5 mph5.6 kmh 30.11 in1019.6 mb - 0.00 in0.0 mm 0.00 in0.0 mm
12:30 AM 63.1°F17.3°C 61.6°F16.4°C 95% 2.3 mph N3.7 kmh N 3.5 mph5.6 kmh 30.11 in1019.6 mb - 0.00 in0.0 mm 0.00 in0.0 mm
12:20 AM 63.2°F17.3°C 61.7°F16.5°C 95% 2.3 mph N3.7 kmh N 3.5 mph5.6 kmh 30.11 in1019.6 mb - 0.00 in0.0 mm 0.00 in0.0 mm
12:10 AM 63.3°F17.4°C 61.8°F16.6°C 95% 3.5 mph N5.6 kmh N 4.6 mph7.4 kmh 30.11 in1019.6 mb - 0.00 in0.0 mm 0.00 in0.0 mm
12:00 AM 63.6°F17.6°C 62.1°F16.7°C 95% 1.2 mph N1.9 kmh N 2.3 mph3.7 kmh 30.11 in1019.6 mb - 0.00 in0.0 mm 0.00 in0.0 mm